sensor_id;sensor_type;location;lat;lon;timestamp;pressure;altitude;pressure_sealevel;temperature;humidity
39739;BME280;25422;48.286;8.484;2023-05-16T00:00:17;93782.00;;;7.60;100.00
39739;BME280;25422;48.286;8.484;2023-05-16T00:02:42;93781.19;;;7.60;100.00
39739;BME280;25422;48.286;8.484;2023-05-16T00:05:08;93787.88;;;7.54;100.00
39739;BME280;25422;48.286;8.484;2023-05-16T00:07:35;93789.81;;;7.60;100.00
39739;BME280;25422;48.286;8.484;2023-05-16T00:10:01;93792.91;;;7.64;100.00
39739;BME280;25422;48.286;8.484;2023-05-16T00:12:27;93793.56;;;7.66;100.00
39739;BME280;25422;48.286;8.484;2023-05-16T00:14:52;93795.84;;;7.69;100.00
39739;BME280;25422;48.286;8.484;2023-05-16T00:17:18;93791.13;;;7.73;100.00
39739;BME280;25422;48.286;8.484;2023-05-16T00:19:45;93793.56;;;7.74;100.00
39739;BME280;25422;48.286;8.484;2023-05-16T00:22:13;93791.00;;;7.83;100.00
39739;BME280;25422;48.286;8.484;2023-05-16T00:24:40;93789.69;;;7.87;100.00
39739;BME280;25422;48.286;8.484;2023-05-16T00:27:05;93785.13;;;7.89;100.00
39739;BME280;25422;48.286;8.484;2023-05-16T00:29:30;93783.34;;;7.98;100.00
39739;BME280;25422;48.286;8.484;2023-05-16T00:31:57;93776.66;;;8.03;100.00
39739;BME280;25422;48.286;8.484;2023-05-16T00:34:22;93776.16;;;8.00;100.00
39739;BME280;25422;48.286;8.484;2023-05-16T00:36:50;93780.56;;;7.99;100.00
39739;BME280;25422;48.286;8.484;2023-05-16T00:39:16;93781.19;;;8.01;100.00
39739;BME280;25422;48.286;8.484;2023-05-16T00:41:41;93781.38;;;8.00;100.00
39739;BME280;25422;48.286;8.484;2023-05-16T00:44:06;93777.47;;;7.96;100.00
39739;BME280;25422;48.286;8.484;2023-05-16T00:46:32;93777.97;;;7.91;100.00
39739;BME280;25422;48.286;8.484;2023-05-16T00:48:58;93781.22;;;7.93;100.00
39739;BME280;25422;48.286;8.484;2023-05-16T00:51:24;93785.28;;;7.96;100.00
39739;BME280;25422;48.286;8.484;2023-05-16T00:53:50;93778.59;;;7.93;100.00
39739;BME280;25422;48.286;8.484;2023-05-16T00:56:17;93780.41;;;7.92;100.00
39739;BME280;25422;48.286;8.484;2023-05-16T00:58:42;93777.28;;;7.97;100.00
39739;BME280;25422;48.286;8.484;2023-05-16T01:01:08;93776.31;;;7.98;100.00
39739;BME280;25422;48.286;8.484;2023-05-16T01:03:34;93783.47;;;7.96;100.00
39739;BME280;25422;48.286;8.484;2023-05-16T01:05:59;93777.63;;;7.94;100.00
39739;BME280;25422;48.286;8.484;2023-05-16T01:08:25;93786.09;;;7.96;100.00
39739;BME280;25422;48.286;8.484;2023-05-16T01:11:06;93778.78;;;7.91;100.00
39739;BME280;25422;48.286;8.484;2023-05-16T01:13:47;93782.03;;;7.93;100.00
39739;BME280;25422;48.286;8.484;2023-05-16T01:16:39;93779.75;;;7.90;100.00
39739;BME280;25422;48.286;8.484;2023-05-16T01:22:08;93779.56;;;7.92;100.00
39739;BME280;25422;48.286;8.484;2023-05-16T01:27:14;93780.72;;;7.98;100.00
39739;BME280;25422;48.286;8.484;2023-05-16T01:29:40;93777.28;;;7.97;100.00
39739;BME280;25422;48.286;8.484;2023-05-16T01:32:06;93783.00;;;8.01;100.00
39739;BME280;25422;48.286;8.484;2023-05-16T01:34:32;93778.75;;;8.08;100.00
39739;BME280;25422;48.286;8.484;2023-05-16T01:37:11;93779.09;;;8.05;100.00
39739;BME280;25422;48.286;8.484;2023-05-16T01:40:01;93778.25;;;8.04;100.00
39739;BME280;25422;48.286;8.484;2023-05-16T01:42:36;93773.22;;;8.03;100.00
39739;BME280;25422;48.286;8.484;2023-05-16T01:47:34;93779.75;;;7.99;100.00
39739;BME280;25422;48.286;8.484;2023-05-16T01:50:15;93766.25;;;7.95;100.00
39739;BME280;25422;48.286;8.484;2023-05-16T01:53:06;93776.00;;;7.93;100.00
39739;BME280;25422;48.286;8.484;2023-05-16T01:55:42;93768.19;;;7.93;100.00
39739;BME280;25422;48.286;8.484;2023-05-16T01:58:09;93769.16;;;7.92;100.00
39739;BME280;25422;48.286;8.484;2023-05-16T02:00:35;93777.13;;;7.90;100.00
39739;BME280;25422;48.286;8.484;2023-05-16T02:03:01;93769.50;;;7.89;100.00
39739;BME280;25422;48.286;8.484;2023-05-16T02:05:26;93769.66;;;7.87;100.00
39739;BME280;25422;48.286;8.484;2023-05-16T02:07:52;93779.41;;;7.85;100.00
39739;BME280;25422;48.286;8.484;2023-05-16T02:10:18;93773.41;;;7.85;100.00
39739;BME280;25422;48.286;8.484;2023-05-16T02:12:44;93776.97;;;7.84;100.00
39739;BME280;25422;48.286;8.484;2023-05-16T02:15:10;93779.75;;;7.82;100.00
39739;BME280;25422;48.286;8.484;2023-05-16T02:17:35;93777.31;;;7.81;100.00
39739;BME280;25422;48.286;8.484;2023-05-16T02:20:01;93779.91;;;7.81;100.00
39739;BME280;25422;48.286;8.484;2023-05-16T02:22:32;93782.50;;;7.81;100.00
39739;BME280;25422;48.286;8.484;2023-05-16T02:25:00;93780.06;;;7.79;100.00
39739;BME280;25422;48.286;8.484;2023-05-16T02:27:25;93783.31;;;7.81;100.00
39739;BME280;25422;48.286;8.484;2023-05-16T02:29:50;93782.19;;;7.84;100.00
39739;BME280;25422;48.286;8.484;2023-05-16T02:32:16;93787.38;;;7.84;100.00
39739;BME280;25422;48.286;8.484;2023-05-16T02:34:41;93791.63;;;7.85;100.00
39739;BME280;25422;48.286;8.484;2023-05-16T02:37:07;93791.63;;;7.85;100.00
39739;BME280;25422;48.286;8.484;2023-05-16T02:39:32;93785.63;;;7.84;100.00
39739;BME280;25422;48.286;8.484;2023-05-16T02:41:58;93790.81;;;7.84;100.00
39739;BME280;25422;48.286;8.484;2023-05-16T02:44:23;93779.56;;;7.84;100.00
39739;BME280;25422;48.286;8.484;2023-05-16T02:46:48;93785.78;;;7.83;100.00
39739;BME280;25422;48.286;8.484;2023-05-16T02:49:14;93785.91;;;7.81;100.00
39739;BME280;25422;48.286;8.484;2023-05-16T02:51:39;93788.53;;;7.81;100.00
39739;BME280;25422;48.286;8.484;2023-05-16T02:54:04;93785.91;;;7.81;100.00
39739;BME280;25422;48.286;8.484;2023-05-16T02:56:32;93791.13;;;7.81;100.00
39739;BME280;25422;48.286;8.484;2023-05-16T02:58:58;93789.69;;;7.79;100.00
39739;BME280;25422;48.286;8.484;2023-05-16T03:01:24;93783.66;;;7.78;100.00
39739;BME280;25422;48.286;8.484;2023-05-16T03:03:50;93782.00;;;7.77;100.00
39739;BME280;25422;48.286;8.484;2023-05-16T03:06:15;93783.66;;;7.78;100.00
39739;BME280;25422;48.286;8.484;2023-05-16T03:08:41;93782.00;;;7.77;100.00
39739;BME280;25422;48.286;8.484;2023-05-16T03:11:06;93780.25;;;7.78;100.00
39739;BME280;25422;48.286;8.484;2023-05-16T03:13:31;93784.78;;;7.75;100.00
39739;BME280;25422;48.286;8.484;2023-05-16T03:15:57;93782.19;;;7.75;100.00
39739;BME280;25422;48.286;8.484;2023-05-16T03:18:23;93781.38;;;7.75;100.00
39739;BME280;25422;48.286;8.484;2023-05-16T03:20:48;93780.41;;;7.76;100.00
39739;BME280;25422;48.286;8.484;2023-05-16T03:23:14;93783.16;;;7.74;100.00
39739;BME280;25422;48.286;8.484;2023-05-16T03:25:39;93776.00;;;7.76;100.00
39739;BME280;25422;48.286;8.484;2023-05-16T03:28:07;93785.28;;;7.79;100.00
39739;BME280;25422;48.286;8.484;2023-05-16T03:30:33;93781.72;;;7.80;100.00
39739;BME280;25422;48.286;8.484;2023-05-16T03:32:59;93785.78;;;7.83;100.00
39739;BME280;25422;48.286;8.484;2023-05-16T03:35:26;93781.38;;;7.83;100.00
39739;BME280;25422;48.286;8.484;2023-05-16T03:37:51;93786.09;;;7.80;100.00
39739;BME280;25422;48.286;8.484;2023-05-16T03:40:17;93783.81;;;7.76;100.00
39739;BME280;25422;48.286;8.484;2023-05-16T03:42:42;93789.50;;;7.72;100.00
39739;BME280;25422;48.286;8.484;2023-05-16T03:45:08;93785.91;;;7.73;100.00
39739;BME280;25422;48.286;8.484;2023-05-16T03:47:33;93787.06;;;7.70;100.00
39739;BME280;25422;48.286;8.484;2023-05-16T03:49:59;93786.25;;;7.70;100.00
39739;BME280;25422;48.286;8.484;2023-05-16T03:52:24;93788.03;;;7.69;100.00
39739;BME280;25422;48.286;8.484;2023-05-16T03:54:50;93795.84;;;7.69;100.00
39739;BME280;25422;48.286;8.484;2023-05-16T03:57:15;93791.97;;;7.73;100.00
39739;BME280;25422;48.286;8.484;2023-05-16T03:59:41;93788.50;;;7.73;100.00
39739;BME280;25422;48.286;8.484;2023-05-16T04:02:07;93786.91;;;7.72;100.00
39739;BME280;25422;48.286;8.484;2023-05-16T04:04:32;93790.97;;;7.74;100.00
39739;BME280;25422;48.286;8.484;2023-05-16T04:06:58;93794.41;;;7.75;100.00
39739;BME280;25422;48.286;8.484;2023-05-16T04:09:23;93795.19;;;7.75;100.00
39739;BME280;25422;48.286;8.484;2023-05-16T04:11:48;93790.00;;;7.75;100.00
39739;BME280;25422;48.286;8.484;2023-05-16T04:14:14;93782.84;;;7.78;100.00
39739;BME280;25422;48.286;8.484;2023-05-16T04:16:40;93794.06;;;7.78;100.00
39739;BME280;25422;48.286;8.484;2023-05-16T04:19:06;93795.19;;;7.84;100.00
39739;BME280;25422;48.286;8.484;2023-05-16T04:21:31;93791.78;;;7.83;100.00
39739;BME280;25422;48.286;8.484;2023-05-16T04:23:57;93792.59;;;7.84;100.00
39739;BME280;25422;48.286;8.484;2023-05-16T04:26:23;93791.78;;;7.83;100.00
39739;BME280;25422;48.286;8.484;2023-05-16T04:28:49;93791.78;;;7.83;100.00
39739;BME280;25422;48.286;8.484;2023-05-16T04:31:14;93796.84;;;7.85;100.00
39739;BME280;25422;48.286;8.484;2023-05-16T04:33:40;93793.25;;;7.86;100.00
39739;BME280;25422;48.286;8.484;2023-05-16T04:36:06;93793.25;;;7.86;100.00
39739;BME280;25422;48.286;8.484;2023-05-16T04:38:32;93786.41;;;7.85;100.00
39739;BME280;25422;48.286;8.484;2023-05-16T04:40:57;93791.63;;;7.85;100.00
39739;BME280;25422;48.286;8.484;2023-05-16T04:43:23;93792.59;;;7.84;100.00
39739;BME280;25422;48.286;8.484;2023-05-16T04:45:48;93796.66;;;7.86;100.00
39739;BME280;25422;48.286;8.484;2023-05-16T04:48:15;93790.81;;;7.92;100.00
39739;BME280;25422;48.286;8.484;2023-05-16T04:50:40;93790.16;;;7.90;100.00
39739;BME280;25422;48.286;8.484;2023-05-16T04:53:06;93788.38;;;7.91;100.00
39739;BME280;25422;48.286;8.484;2023-05-16T04:55:31;93798.81;;;7.91;100.00
39739;BME280;25422;48.286;8.484;2023-05-16T04:57:57;93802.03;;;7.93;100.00
39739;BME280;25422;48.286;8.484;2023-05-16T05:00:22;93792.75;;;7.90;100.00
39739;BME280;25422;48.286;8.484;2023-05-16T05:02:47;93798.63;;;7.92;100.00
39739;BME280;25422;48.286;8.484;2023-05-16T05:05:13;93805.63;;;7.92;100.00
39739;BME280;25422;48.286;8.484;2023-05-16T05:07:38;93802.88;;;7.93;100.00
39739;BME280;25422;48.286;8.484;2023-05-16T05:10:05;93804.00;;;7.99;100.00
39739;BME280;25422;48.286;8.484;2023-05-16T05:12:32;93807.09;;;8.03;100.00
39739;BME280;25422;48.286;8.484;2023-05-16T05:14:57;93808.56;;;8.05;100.00
39739;BME280;25422;48.286;8.484;2023-05-16T05:17:22;93804.34;;;8.13;100.00
39739;BME280;25422;48.286;8.484;2023-05-16T05:19:48;93804.97;;;8.15;100.00
39739;BME280;25422;48.286;8.484;2023-05-16T05:22:13;93808.25;;;8.17;100.00
39739;BME280;25422;48.286;8.484;2023-05-16T05:24:39;93796.81;;;8.18;100.00
39739;BME280;25422;48.286;8.484;2023-05-16T05:27:05;93806.63;;;8.16;100.00
39739;BME280;25422;48.286;8.484;2023-05-16T05:29:30;93806.28;;;8.19;100.00
39739;BME280;25422;48.286;8.484;2023-05-16T05:31:55;93803.84;;;8.09;100.00
39739;BME280;25422;48.286;8.484;2023-05-16T05:34:21;93807.91;;;8.12;100.00
39739;BME280;25422;48.286;8.484;2023-05-16T05:36:46;93802.38;;;8.15;100.00
39739;BME280;25422;48.286;8.484;2023-05-16T05:39:12;93805.94;;;8.14;100.00
39739;BME280;25422;48.286;8.484;2023-05-16T05:41:37;93804.34;;;8.13;100.00
39739;BME280;25422;48.286;8.484;2023-05-16T05:44:03;93810.53;;;8.20;100.00
39739;BME280;25422;48.286;8.484;2023-05-16T05:46:28;93811.50;;;8.19;100.00
39739;BME280;25422;48.286;8.484;2023-05-16T05:48:54;93807.91;;;8.20;100.00
39739;BME280;25422;48.286;8.484;2023-05-16T05:51:20;93808.53;;;8.22;100.00
39739;BME280;25422;48.286;8.484;2023-05-16T05:53:45;93809.38;;;8.14;100.00
39739;BME280;25422;48.286;8.484;2023-05-16T05:56:11;93818.50;;;8.10;100.00
39739;BME280;25422;48.286;8.484;2023-05-16T05:58:37;93815.56;;;8.13;100.00
39739;BME280;25422;48.286;8.484;2023-05-16T06:01:03;93814.72;;;8.04;100.00
39739;BME280;25422;48.286;8.484;2023-05-16T06:03:29;93805.63;;;8.00;100.00
39739;BME280;25422;48.286;8.484;2023-05-16T06:05:54;93821.25;;;8.00;100.00
39739;BME280;25422;48.286;8.484;2023-05-16T06:08:20;93820.94;;;7.95;100.00
39739;BME280;25422;48.286;8.484;2023-05-16T06:10:46;93818.50;;;7.93;100.00
39739;BME280;25422;48.286;8.484;2023-05-16T06:13:11;93827.13;;;7.94;100.00
39739;BME280;25422;48.286;8.484;2023-05-16T06:15:37;93832.16;;;7.96;100.00
39739;BME280;25422;48.286;8.484;2023-05-16T06:18:02;93826.97;;;7.96;100.00
39739;BME280;25422;48.286;8.484;2023-05-16T06:20:28;93831.66;;;7.92;100.00
39739;BME280;25422;48.286;8.484;2023-05-16T06:22:53;93832.00;;;7.97;100.00
39739;BME280;25422;48.286;8.484;2023-05-16T06:25:18;93834.28;;;8.00;100.00
39739;BME280;25422;48.286;8.484;2023-05-16T06:27:44;93831.84;;;7.90;100.00
39739;BME280;25422;48.286;8.484;2023-05-16T06:30:09;93832.50;;;7.84;100.00
39739;BME280;25422;48.286;8.484;2023-05-16T06:32:35;93837.38;;;7.87;100.00
39739;BME280;25422;48.286;8.484;2023-05-16T06:35:01;93836.56;;;7.87;100.00
39739;BME280;25422;48.286;8.484;2023-05-16T06:37:26;93842.59;;;7.96;100.00
39739;BME280;25422;48.286;8.484;2023-05-16T06:39:52;93843.72;;;7.93;100.00
39739;BME280;25422;48.286;8.484;2023-05-16T06:42:17;93840.31;;;7.92;100.00
39739;BME280;25422;48.286;8.484;2023-05-16T06:44:45;93838.50;;;7.85;100.00
39739;BME280;25422;48.286;8.484;2023-05-16T06:47:10;93837.88;;;7.83;100.00
39739;BME280;25422;48.286;8.484;2023-05-16T06:49:36;93842.06;;;7.84;100.00
39739;BME280;25422;48.286;8.484;2023-05-16T06:52:01;93843.56;;;7.86;100.00
39739;BME280;25422;48.286;8.484;2023-05-16T06:54:27;93843.88;;;7.83;100.00
39739;BME280;25422;48.286;8.484;2023-05-16T06:56:52;93846.00;;;7.88;100.00
39739;BME280;25422;48.286;8.484;2023-05-16T06:59:18;93860.31;;;7.84;100.00
39739;BME280;25422;48.286;8.484;2023-05-16T07:01:43;93849.09;;;7.83;100.00
39739;BME280;25422;48.286;8.484;2023-05-16T07:04:09;93863.91;;;7.83;100.00
39739;BME280;25422;48.286;8.484;2023-05-16T07:06:34;93855.28;;;7.90;100.00
39739;BME280;25422;48.286;8.484;2023-05-16T07:09:00;93854.81;;;7.87;100.00
39739;BME280;25422;48.286;8.484;2023-05-16T07:11:26;93858.72;;;7.91;100.00
39739;BME280;25422;48.286;8.484;2023-05-16T07:13:52;93860.81;;;7.96;100.00
39739;BME280;25422;48.286;8.484;2023-05-16T07:16:17;93858.88;;;7.98;100.00
39739;BME280;25422;48.286;8.484;2023-05-16T07:18:42;93860.66;;;7.97;100.00
39739;BME280;25422;48.286;8.484;2023-05-16T07:21:08;93860.03;;;7.95;100.00
39739;BME280;25422;48.286;8.484;2023-05-16T07:23:33;93860.81;;;7.96;100.00
39739;BME280;25422;48.286;8.484;2023-05-16T07:25:58;93864.41;;;7.94;100.00
39739;BME280;25422;48.286;8.484;2023-05-16T07:28:24;93858.06;;;7.97;100.00
39739;BME280;25422;48.286;8.484;2023-05-16T07:30:50;93857.09;;;7.98;100.00
39739;BME280;25422;48.286;8.484;2023-05-16T07:33:15;93868.47;;;8.05;100.00
39739;BME280;25422;48.286;8.484;2023-05-16T07:35:40;93868.19;;;8.08;100.00
39739;BME280;25422;48.286;8.484;2023-05-16T07:38:06;93870.78;;;8.17;100.00
39739;BME280;25422;48.286;8.484;2023-05-16T07:40:32;93868.19;;;8.08;100.00
39739;BME280;25422;48.286;8.484;2023-05-16T07:42:57;93862.78;;;8.02;100.00
39739;BME280;25422;48.286;8.484;2023-05-16T07:45:23;93865.53;;;8.00;100.00
39739;BME280;25422;48.286;8.484;2023-05-16T07:47:49;93865.53;;;8.00;100.00
39739;BME280;25422;48.286;8.484;2023-05-16T07:50:14;93868.13;;;8.00;100.00
39739;BME280;25422;48.286;8.484;2023-05-16T07:52:40;93874.50;;;7.98;100.00
39739;BME280;25422;48.286;8.484;2023-05-16T07:55:06;93870.91;;;7.99;100.00
39739;BME280;25422;48.286;8.484;2023-05-16T07:57:31;93872.56;;;8.08;100.00
39739;BME280;25422;48.286;8.484;2023-05-16T07:59:57;93876.31;;;8.14;100.00
39739;BME280;25422;48.286;8.484;2023-05-16T08:02:22;93872.38;;;8.01;100.00
39739;BME280;25422;48.286;8.484;2023-05-16T08:04:54;93875.97;;;8.00;100.00
39739;BME280;25422;48.286;8.484;2023-05-16T08:07:21;93875.81;;;7.93;100.00
39739;BME280;25422;48.286;8.484;2023-05-16T08:09:46;93874.97;;;7.93;100.00
39739;BME280;25422;48.286;8.484;2023-05-16T08:12:12;93887.03;;;7.94;100.00
39739;BME280;25422;48.286;8.484;2023-05-16T08:14:37;93887.66;;;7.88;100.00
39739;BME280;25422;48.286;8.484;2023-05-16T08:17:03;93892.56;;;7.91;100.00
39739;BME280;25422;48.286;8.484;2023-05-16T08:19:29;93891.56;;;7.84;100.00
39739;BME280;25422;48.286;8.484;2023-05-16T08:21:54;93892.22;;;7.78;100.00
39739;BME280;25422;48.286;8.484;2023-05-16T08:24:20;93892.22;;;7.86;100.00
39739;BME280;25422;48.286;8.484;2023-05-16T08:26:45;93893.19;;;7.85;100.00
39739;BME280;25422;48.286;8.484;2023-05-16T08:29:10;93891.44;;;7.93;100.00
39739;BME280;25422;48.286;8.484;2023-05-16T08:31:36;93898.44;;;8.01;100.00
39739;BME280;25422;48.286;8.484;2023-05-16T08:34:01;93896.16;;;8.06;100.00
39739;BME280;25422;48.286;8.484;2023-05-16T08:36:30;93892.59;;;8.07;100.00
39739;BME280;25422;48.286;8.484;2023-05-16T08:38:56;93892.25;;;8.02;100.00
39739;BME280;25422;48.286;8.484;2023-05-16T08:41:21;93897.63;;;8.01;100.00
39739;BME280;25422;48.286;8.484;2023-05-16T08:43:46;93903.81;;;8.00;100.00
39739;BME280;25422;48.286;8.484;2023-05-16T08:46:12;93906.06;;;7.86;100.00
39739;BME280;25422;48.286;8.484;2023-05-16T08:48:42;93911.44;;;7.93;100.00
39739;BME280;25422;48.286;8.484;2023-05-16T08:51:10;93913.22;;;7.84;100.00
39739;BME280;25422;48.286;8.484;2023-05-16T08:53:44;93909.78;;;7.75;100.00
39739;BME280;25422;48.286;8.484;2023-05-16T08:56:12;93911.56;;;7.67;100.00
39739;BME280;25422;48.286;8.484;2023-05-16T08:58:39;93911.38;;;7.60;100.00
39739;BME280;25422;48.286;8.484;2023-05-16T09:01:04;93910.44;;;7.69;100.00
39739;BME280;25422;48.286;8.484;2023-05-16T09:03:35;93912.38;;;7.75;100.00
39739;BME280;25422;48.286;8.484;2023-05-16T09:06:03;93912.88;;;7.79;100.00
39739;BME280;25422;48.286;8.484;2023-05-16T09:08:29;93910.81;;;7.91;100.00
39739;BME280;25422;48.286;8.484;2023-05-16T09:10:55;93915.69;;;7.86;100.00
39739;BME280;25422;48.286;8.484;2023-05-16T09:13:20;93921.06;;;7.92;100.00
39739;BME280;25422;48.286;8.484;2023-05-16T09:16:12;93922.53;;;7.87;100.00
39739;BME280;25422;48.286;8.484;2023-05-16T09:18:54;93918.91;;;7.88;100.00
39739;BME280;25422;48.286;8.484;2023-05-16T09:21:26;93923.97;;;7.89;100.00
39739;BME280;25422;48.286;8.484;2023-05-16T09:23:51;93924.47;;;7.85;100.00
39739;BME280;25422;48.286;8.484;2023-05-16T09:26:17;93921.47;;;7.71;100.00
39739;BME280;25422;48.286;8.484;2023-05-16T09:28:43;93926.69;;;7.71;100.00
39739;BME280;25422;48.286;8.484;2023-05-16T09:31:22;93921.81;;;7.68;100.00
39739;BME280;25422;48.286;8.484;2023-05-16T09:33:56;93932.56;;;7.73;100.00
39739;BME280;25422;48.286;8.484;2023-05-16T09:36:22;93933.38;;;7.74;100.00
39739;BME280;25422;48.286;8.484;2023-05-16T09:38:50;93926.53;;;7.73;100.00
39739;BME280;25422;48.286;8.484;2023-05-16T09:41:15;93936.00;;;7.82;100.00
39739;BME280;25422;48.286;8.484;2023-05-16T09:43:41;93930.34;;;7.87;100.00
39739;BME280;25422;48.286;8.484;2023-05-16T09:46:11;93931.75;;;7.73;100.00
39739;BME280;25422;48.286;8.484;2023-05-16T09:48:40;93932.59;;;7.82;100.00
39739;BME280;25422;48.286;8.484;2023-05-16T09:51:06;93933.56;;;7.81;100.00
39739;BME280;25422;48.286;8.484;2023-05-16T09:53:32;93936.16;;;7.81;100.00
39739;BME280;25422;48.286;8.484;2023-05-16T09:56:05;93933.56;;;7.81;100.00
39739;BME280;25422;48.286;8.484;2023-05-16T09:58:33;93925.91;;;7.79;100.00
39739;BME280;25422;48.286;8.484;2023-05-16T10:01:00;93925.41;;;7.75;100.00
39739;BME280;25422;48.286;8.484;2023-05-16T10:03:26;93930.81;;;7.90;100.00
39739;BME280;25422;48.286;8.484;2023-05-16T10:05:53;93928.56;;;8.04;100.00
39739;BME280;25422;48.286;8.484;2023-05-16T10:08:23;93934.56;;;8.04;100.00
39739;BME280;25422;48.286;8.484;2023-05-16T10:10:55;93929.69;;;7.93;100.00
39739;BME280;25422;48.286;8.484;2023-05-16T10:13:28;93932.63;;;7.90;100.00
39739;BME280;25422;48.286;8.484;2023-05-16T10:15:56;93929.66;;;7.85;100.00
39739;BME280;25422;48.286;8.484;2023-05-16T10:18:28;93938.16;;;7.95;100.00
39739;BME280;25422;48.286;8.484;2023-05-16T10:20:54;93936.19;;;7.89;100.00
39739;BME280;25422;48.286;8.484;2023-05-16T10:23:24;93932.88;;;7.70;100.00
39739;BME280;25422;48.286;8.484;2023-05-16T10:25:50;93939.84;;;7.62;100.00
39739;BME280;25422;48.286;8.484;2023-05-16T10:28:17;93943.44;;;7.69;100.00
39739;BME280;25422;48.286;8.484;2023-05-16T10:30:45;93940.34;;;7.65;100.00
39739;BME280;25422;48.286;8.484;2023-05-16T10:33:13;93934.53;;;7.80;100.00
39739;BME280;25422;48.286;8.484;2023-05-16T10:35:39;93945.44;;;7.83;100.00
39739;BME280;25422;48.286;8.484;2023-05-16T10:38:06;93947.91;;;7.85;100.00
39739;BME280;25422;48.286;8.484;2023-05-16T10:40:34;93944.34;;;7.94;100.00
39739;BME280;25422;48.286;8.484;2023-05-16T10:43:02;93946.78;;;7.96;100.00
39739;BME280;25422;48.286;8.484;2023-05-16T10:45:28;93937.16;;;7.96;100.00
39739;BME280;25422;48.286;8.484;2023-05-16T10:50:43;93943.00;;;7.82;100.00
39739;BME280;25422;48.286;8.484;2023-05-16T10:53:20;93937.81;;;7.82;100.00
39739;BME280;25422;48.286;8.484;2023-05-16T10:58:24;93942.34;;;7.80;100.00
39739;BME280;25422;48.286;8.484;2023-05-16T11:01:28;93941.69;;;7.78;100.00
39739;BME280;25422;48.286;8.484;2023-05-16T11:11:38;93946.88;;;7.69;100.00
39739;BME280;25422;48.286;8.484;2023-05-16T11:14:04;93950.31;;;7.78;100.00
39739;BME280;25422;48.286;8.484;2023-05-16T11:16:29;93951.41;;;7.67;100.00
39739;BME280;25422;48.286;8.484;2023-05-16T11:19:03;93960.19;;;7.66;100.00
39739;BME280;25422;48.286;8.484;2023-05-16T11:24:33;93960.56;;;7.80;100.00
39739;BME280;25422;48.286;8.484;2023-05-16T11:26:59;93959.25;;;7.75;100.00
39739;BME280;25422;48.286;8.484;2023-05-16T11:29:30;93963.81;;;7.73;100.00
39739;BME280;25422;48.286;8.484;2023-05-16T11:32:01;93962.56;;;7.86;100.00
39739;BME280;25422;48.286;8.484;2023-05-16T11:34:26;93961.91;;;7.92;100.00
39739;BME280;25422;48.286;8.484;2023-05-16T11:36:52;93962.38;;;7.79;100.00
39739;BME280;25422;48.286;8.484;2023-05-16T11:39:18;93963.16;;;7.71;100.00
39739;BME280;25422;48.286;8.484;2023-05-16T11:41:44;93963.50;;;7.76;100.00
39739;BME280;25422;48.286;8.484;2023-05-16T11:44:11;93970.00;;;7.72;100.00
39739;BME280;25422;48.286;8.484;2023-05-16T11:46:38;93973.09;;;7.76;100.00
39739;BME280;25422;48.286;8.484;2023-05-16T11:49:05;93969.66;;;7.75;100.00
39739;BME280;25422;48.286;8.484;2023-05-16T11:51:31;93973.91;;;7.76;100.00
39739;BME280;25422;48.286;8.484;2023-05-16T11:53:59;93974.41;;;7.72;100.00
39739;BME280;25422;48.286;8.484;2023-05-16T11:56:26;93975.44;;;7.96;100.00
39739;BME280;25422;48.286;8.484;2023-05-16T11:58:52;93978.03;;;7.96;100.00
39739;BME280;25422;48.286;8.484;2023-05-16T12:01:17;93974.94;;;8.00;100.00
39739;BME280;25422;48.286;8.484;2023-05-16T12:03:43;93981.19;;;8.07;100.00
39739;BME280;25422;48.286;8.484;2023-05-16T12:06:08;93979.19;;;8.01;100.00
39739;BME280;25422;48.286;8.484;2023-05-16T12:08:34;93981.47;;;7.96;100.00
39739;BME280;25422;48.286;8.484;2023-05-16T12:11:00;93980.06;;;8.10;100.00
39739;BME280;25422;48.286;8.484;2023-05-16T12:13:25;93987.53;;;8.05;100.00
39739;BME280;25422;48.286;8.484;2023-05-16T12:15:51;93991.28;;;8.10;100.00
39739;BME280;25422;48.286;8.484;2023-05-16T12:18:17;93985.72;;;8.05;100.00
39739;BME280;25422;48.286;8.484;2023-05-16T12:20:43;93987.16;;;7.91;100.00
39739;BME280;25422;48.286;8.484;2023-05-16T12:23:12;93981.16;;;7.99;100.00
39739;BME280;25422;48.286;8.484;2023-05-16T12:25:44;93984.22;;;7.94;100.00
39739;BME280;25422;48.286;8.484;2023-05-16T12:28:14;93981.38;;;8.14;100.00
39739;BME280;25422;48.286;8.484;2023-05-16T12:30:41;93983.13;;;8.14;100.00
39739;BME280;25422;48.286;8.484;2023-05-16T12:33:13;93970.78;;;8.24;100.00
39739;BME280;25422;48.286;8.484;2023-05-16T12:35:41;93978.44;;;8.25;100.00
39739;BME280;25422;48.286;8.484;2023-05-16T12:38:12;93975.03;;;8.33;100.00
39739;BME280;25422;48.286;8.484;2023-05-16T12:40:40;93976.41;;;8.46;100.00
39739;BME280;25422;48.286;8.484;2023-05-16T12:43:13;93977.34;;;8.44;100.00
39739;BME280;25422;48.286;8.484;2023-05-16T12:45:39;93980.88;;;8.19;100.00
39739;BME280;25422;48.286;8.484;2023-05-16T12:48:11;93975.28;;;7.97;100.00
39739;BME280;25422;48.286;8.484;2023-05-16T12:50:38;93981.25;;;7.81;100.00
39739;BME280;25422;48.286;8.484;2023-05-16T12:53:03;93984.34;;;7.76;100.00
39739;BME280;25422;48.286;8.484;2023-05-16T12:55:28;93984.50;;;7.75;100.00
39739;BME280;25422;48.286;8.484;2023-05-16T12:57:54;93981.59;;;7.86;100.00
39739;BME280;25422;48.286;8.484;2023-05-16T13:00:21;93975.59;;;7.94;100.00
39739;BME280;25422;48.286;8.484;2023-05-16T13:02:47;93983.41;;;7.94;100.00
39739;BME280;25422;48.286;8.484;2023-05-16T13:05:13;93982.81;;;8.08;100.00
39739;BME280;25422;48.286;8.484;2023-05-16T13:07:39;93981.78;;;7.93;100.00
39739;BME280;25422;48.286;8.484;2023-05-16T13:10:09;93982.47;;;8.03;100.00
39739;BME280;25422;48.286;8.484;2023-05-16T13:12:35;93985.06;;;7.95;100.00
39739;BME280;25422;48.286;8.484;2023-05-16T13:15:01;93983.75;;;7.91;100.00
39739;BME280;25422;48.286;8.484;2023-05-16T13:17:26;93990.09;;;7.88;100.00
39739;BME280;25422;48.286;8.484;2023-05-16T13:19:54;93991.66;;;7.81;100.00
39739;BME280;25422;48.286;8.484;2023-05-16T13:22:20;94002.56;;;7.76;100.00